Chemroad Wing — 3EAB8 — position and weather

sailwx.info

Track history (hours):
 
Tides and Currents Weather Stations Pressure Air Temp Water Temp Dewpoint Dewpoint Depression Visibility Wind Speed Wind Dir Waves Ship Positions

Chemroad Wing

Last reported at 2017-Apr-30 00:10 UTC. Time now 2017-Apr-30 05:25 UTC.
Position N 49°38' W 003°56'.

Length 170 m; draft 6.6 m.

Type: Ship. MMSI: 357740000.

Date/timePositionNaut miles runAvg speedWind from/ knotsBaromVisibWave heightAir tempDewpointWater temp
2017-Apr-30 00:10N 49°38' W 003°56'315.0
2017-Apr-29 23:59N 49°39' W 003°52'814.7
2017-Apr-29 23:27N 49°43' W 003°42'614.2
2017-Apr-29 23:00N 49°46' W 003°33'713.6
2017-Apr-29 22:30N 49°50' W 003°24'612.6
2017-Apr-29 22:00N 49°53' W 003°16'612.4
2017-Apr-29 21:30N 49°56' W 003°07'612.3
2017-Apr-29 21:00N 49°59' W 002°59'612.2
2017-Apr-29 20:30N 50°01' W 002°50'612.5
2017-Apr-29 20:00N 50°03' W 002°41'713.1
2017-Apr-29 19:30N 50°05' W 002°31'713.7
2017-Apr-29 19:00N 50°06' W 002°21'714.6
2017-Apr-29 18:30N 50°08' W 002°10'915.8
2017-Apr-29 17:57N 50°10' W 001°57'916.9
2017-Apr-29 17:24N 50°13' W 001°43'917.6
2017-Apr-29 16:54N 50°15' W 001°29'918.0
2017-Apr-29 16:25N 50°17' W 001°16'818.2
2017-Apr-29 15:59N 50°19' W 001°04'918.1
2017-Apr-29 15:30N 50°21' W 000°51'816.2
2017-Apr-29 15:00N 50°22' W 000°38'1615.9
2017-Apr-29 14:00N 50°27' W 000°14'714.7
2017-Apr-29 13:30N 50°29' W 000°03'714.1
2017-Apr-29 13:00N 50°31' E 000°08'713.3
2017-Apr-29 12:30N 50°33' E 000°17'912.6
2017-Apr-29 11:49N 50°35' E 000°30'412.1
2017-Apr-29 11:30N 50°37' E 000°36'612.0
2017-Apr-29 11:00N 50°40' E 000°44'612.5
2017-Apr-29 10:30N 50°43' E 000°52'713.4
2017-Apr-29 10:00N 50°47' E 001°01'1014.6
2017-Apr-29 09:18N 50°54' E 001°13'516.1
2017-Apr-29 09:01N 50°58' E 001°17'816.6
2017-Apr-29 08:31N 51°04' E 001°27'816.5
2017-Apr-29 08:01N 51°09' E 001°37'815.5
2017-Apr-29 07:31N 51°14' E 001°46'714.4
2017-Apr-29 07:00N 51°20' E 001°52'713.3
2017-Apr-29 06:30N 51°26' E 001°57'612.9
2017-Apr-29 06:00N 51°31' E 002°03'612.4
2017-Apr-29 05:30N 51°36' E 002°10'812.4
2017-Apr-29 04:54N 51°42' E 002°18'2511.8
2017-Apr-29 02:47N 52°00' E 002°45'712.4
2017-Apr-29 02:13N 52°01' E 002°56'312.9
2017-Apr-29 02:00N 52°02' E 003°01'713.2
2017-Apr-29 01:29N 52°02' E 003°12'713.8
2017-Apr-29 01:00N 52°02' E 003°22'714.3
2017-Apr-29 00:30N 52°03' E 003°34'714.7
2017-Apr-29 00:00N 52°03' E 003°46'3 6.9
2017-Apr-28 23:30N 52°02' E 003°51'2 4.1
2017-Apr-28 23:00N 52°02' E 003°55'2 4.5
2017-Apr-28 22:30N 52°03' E 003°58'3 6.2
2017-Apr-28 22:00N 52°00' E 004°00'511.0
2017-Apr-28 21:30N 51°58' E 004°08'612.3
2017-Apr-28 21:00N 51°54' E 004°16'3 5.5
2017-Apr-28 20:31N 51°53' E 004°21'0 0.0
2017-Apr-28 19:51N 51°53' E 004°21'0 0.0
2017-Apr-28 19:30N 51°53' E 004°21'0 0.0
2017-Apr-28 18:59N 51°53' E 004°21'0 0.0
2017-Apr-28 18:29N 51°53' E 004°21'0 0.0
2017-Apr-28 17:59N 51°53' E 004°21'0 0.0
2017-Apr-28 17:29N 51°53' E 004°21'0 0.0
2017-Apr-28 16:59N 51°53' E 004°21'0 0.0
2017-Apr-28 16:26N 51°53' E 004°21'0 0.0
2017-Apr-28 15:53N 51°53' E 004°21'0 0.0
2017-Apr-28 15:14N 51°53' E 004°21'0 0.0
2017-Apr-28 14:59N 51°53' E 004°21'0 0.0
2017-Apr-28 13:59N 51°53' E 004°21'0 0.0
2017-Apr-28 13:29N 51°53' E 004°21'0 0.0
2017-Apr-28 12:59N 51°53' E 004°21'0 0.0
2017-Apr-28 12:29N 51°53' E 004°21'0 0.0
2017-Apr-28 11:17N 51°53' E 004°21'0 0.0
2017-Apr-28 10:59N 51°53' E 004°21'0 0.0
2017-Apr-28 10:23N 51°53' E 004°21'0 0.0
2017-Apr-28 09:50N 51°53' E 004°21'0 0.0
2017-Apr-28 09:26N 51°53' E 004°21'0 0.0
2017-Apr-28 08:56N 51°53' E 004°21'0 0.0
2017-Apr-28 08:29N 51°53' E 004°21'0 0.0
2017-Apr-28 07:59N 51°53' E 004°21'0 0.0
2017-Apr-28 07:26N 51°53' E 004°21'0 0.0
2017-Apr-28 06:54N 51°53' E 004°21'0 0.0
2017-Apr-28 06:26N 51°53' E 004°21'0 0.0
2017-Apr-28 05:56N 51°53' E 004°21'0 0.0
2017-Apr-28 05:29N 51°53' E 004°21'0 0.0
2017-Apr-28 04:56N 51°53' E 004°21'0 0.0
2017-Apr-28 04:29N 51°53' E 004°21'0 0.0
2017-Apr-28 03:59N 51°53' E 004°21'0 0.0
2017-Apr-28 03:23N 51°53' E 004°21'0 0.0
2017-Apr-28 02:59N 51°53' E 004°21'0 0.0
2017-Apr-28 02:29N 51°53' E 004°21'0 0.0
2017-Apr-28 01:59N 51°53' E 004°21'0 0.0
2017-Apr-28 01:30N 51°53' E 004°21'0 0.0
2017-Apr-28 00:59N 51°53' E 004°21'0 0.0
2017-Apr-28 00:30N 51°53' E 004°21'0 0.0
2017-Apr-27 23:59N 51°53' E 004°21'0 0.0
2017-Apr-27 23:26N 51°53' E 004°21'0 0.0
2017-Apr-27 22:56N 51°53' E 004°21'0 0.0
2017-Apr-27 22:29N 51°53' E 004°21'0 0.0
2017-Apr-27 22:00N 51°53' E 004°21'0 0.0
2017-Apr-27 21:26N 51°53' E 004°21'0 0.0
2017-Apr-27 21:00N 51°53' E 004°21'0 0.0
2017-Apr-27 19:30N 51°53' E 004°21'0 0.0
2017-Apr-27 19:00N 51°53' E 004°21'0 0.0
2017-Apr-27 18:23N 51°53' E 004°21'0 0.0
2017-Apr-27 17:54N 51°53' E 004°21'0 0.0
2017-Apr-27 17:29N 51°53' E 004°21'0 0.0
2017-Apr-27 16:54N 51°53' E 004°21'0 0.0
2017-Apr-27 16:30N 51°53' E 004°21'0 0.0
2017-Apr-27 15:59N 51°53' E 004°21'0 0.0
2017-Apr-27 15:30N 51°53' E 004°21'0 0.0
2017-Apr-27 13:59N 51°53' E 004°21'0 0.0
2017-Apr-27 12:59N 51°53' E 004°21'0 0.0
2017-Apr-27 12:30N 51°53' E 004°21'0 0.0
2017-Apr-27 11:30N 51°53' E 004°21'0 0.0
2017-Apr-27 10:59N 51°53' E 004°21'0 0.0
2017-Apr-27 10:20N 51°53' E 004°21'0 0.0
2017-Apr-27 09:56N 51°53' E 004°21'0 0.0
2017-Apr-27 09:17N 51°53' E 004°21'0 0.0
2017-Apr-27 08:53N 51°53' E 004°21'0 0.0
2017-Apr-27 08:29N 51°53' E 004°21'0 0.0
2017-Apr-27 07:59N 51°53' E 004°21'0 0.0
2017-Apr-27 06:59N 51°53' E 004°21'0 0.0
2017-Apr-27 06:30N 51°53' E 004°21'0 0.0
2017-Apr-27 05:59N 51°53' E 004°21'0 0.0
2017-Apr-27 05:29N 51°53' E 004°21'0 0.0
2017-Apr-27 04:59N 51°53' E 004°21'0 0.0
2017-Apr-27 04:20N 51°53' E 004°21'0 0.0
2017-Apr-27 03:59N 51°53' E 004°21'0 0.0
2017-Apr-27 03:17N 51°53' E 004°21'0 0.0
2017-Apr-27 02:59N 51°53' E 004°21'0 0.0
2017-Apr-27 02:29N 51°53' E 004°21'0 0.0
2017-Apr-27 01:59N 51°53' E 004°21'0 0.0
2017-Apr-27 01:29N 51°53' E 004°21'0 0.0
2017-Apr-27 00:50N 51°53' E 004°21'0 0.0
2017-Apr-27 00:29N 51°53' E 004°21'0 0.0
2017-Apr-27 00:01N 51°53' E 004°21'0 0.5
2017-Apr-26 23:30N 51°54' E 004°20'3 5.9
2017-Apr-26 23:01N 51°54' E 004°16'5 9.1
2017-Apr-26 22:31N 51°57' E 004°10'5 9.8
2017-Apr-26 22:01N 51°59' E 004°03'1 2.1
2017-Apr-26 21:30N 51°59' E 004°04'2 3.5
2017-Apr-26 21:00N 51°58' E 004°02'0 0.6
2017-Apr-26 20:31N 51°58' E 004°02'0 0.0
2017-Apr-26 19:59N 51°58' E 004°02'0 0.0
2017-Apr-26 19:29N 51°58' E 004°02'0 0.0
2017-Apr-26 18:59N 51°58' E 004°02'0 0.0
2017-Apr-26 18:29N 51°58' E 004°02'0 0.0
2017-Apr-26 17:59N 51°58' E 004°02'0 0.0
2017-Apr-26 17:29N 51°58' E 004°02'0 0.0
2017-Apr-26 16:56N 51°58' E 004°02'0 0.0
2017-Apr-26 16:29N 51°58' E 004°02'0 0.0
2017-Apr-26 15:53N 51°58' E 004°02'0 0.0
2017-Apr-26 15:29N 51°58' E 004°02'0 0.0
2017-Apr-26 14:56N 51°58' E 004°02'0 0.0
2017-Apr-26 13:59N 51°58' E 004°02'0 0.0
2017-Apr-26 13:29N 51°58' E 004°02'0 0.0
2017-Apr-26 12:59N 51°58' E 004°02'0 0.0
2017-Apr-26 12:26N 51°58' E 004°02'0 0.0
2017-Apr-26 11:53N 51°58' E 004°02'0 0.0
2017-Apr-26 11:29N 51°58' E 004°02'0 0.0
2017-Apr-26 10:59N 51°58' E 004°02'0 0.0
2017-Apr-26 10:26N 51°58' E 004°02'0 0.0
2017-Apr-26 09:59N 51°58' E 004°02'0 0.0
2017-Apr-26 09:26N 51°58' E 004°02'0 0.0
2017-Apr-26 08:56N 51°58' E 004°02'0 0.0
2017-Apr-26 08:26N 51°58' E 004°02'0 0.0
2017-Apr-26 07:59N 51°58' E 004°02'0 0.0
2017-Apr-26 07:26N 51°58' E 004°02'0 0.0
2017-Apr-26 06:59N 51°58' E 004°02'0 0.0
2017-Apr-26 06:29N 51°58' E 004°02'0 0.0
2017-Apr-26 05:59N 51°58' E 004°02'0 0.0
2017-Apr-26 05:29N 51°58' E 004°02'0 0.0
2017-Apr-26 04:59N 51°58' E 004°02'0 0.0
2017-Apr-26 04:29N 51°58' E 004°02'0 0.0
2017-Apr-26 03:59N 51°58' E 004°02'0 0.0
2017-Apr-26 03:29N 51°58' E 004°02'0 0.0
2017-Apr-26 02:59N 51°58' E 004°02'0 0.0
2017-Apr-26 02:29N 51°58' E 004°02'0 0.0
2017-Apr-26 01:59N 51°58' E 004°02'0 0.0
2017-Apr-26 01:29N 51°58' E 004°02'0 0.0
2017-Apr-26 00:59N 51°58' E 004°02'0 0.0
2017-Apr-26 00:29N 51°58' E 004°02'0 0.0
2017-Apr-25 23:59N 51°58' E 004°02'0 0.0
2017-Apr-25 23:29N 51°58' E 004°02'0 0.0
2017-Apr-25 22:59N 51°58' E 004°02'0 0.0
2017-Apr-25 22:29N 51°58' E 004°02'0 0.0
2017-Apr-25 21:59N 51°58' E 004°02'0 0.0
2017-Apr-25 21:29N 51°58' E 004°02'0 0.0
2017-Apr-25 20:59N 51°58' E 004°02'0 0.0
2017-Apr-25 20:29N 51°58' E 004°02'0 0.0
2017-Apr-25 19:59N 51°58' E 004°02'0 0.0
2017-Apr-25 19:29N 51°58' E 004°02'0 0.0
2017-Apr-25 18:59N 51°58' E 004°02'0 0.0
2017-Apr-25 18:29N 51°58' E 004°02'0 0.0
2017-Apr-25 17:59N 51°58' E 004°02'0 0.0
2017-Apr-25 17:29N 51°58' E 004°02'0 0.0
2017-Apr-25 16:59N 51°58' E 004°02'0 0.0
2017-Apr-25 16:29N 51°58' E 004°02'0 0.0
2017-Apr-25 15:59N 51°58' E 004°02'0 0.0
2017-Apr-25 15:29N 51°58' E 004°02'0 0.0
2017-Apr-25 14:56N 51°58' E 004°02'0 0.0
2017-Apr-25 13:57N 51°58' E 004°02'0 0.5
2017-Apr-25 13:31N 51°58' E 004°02'2 3.8
2017-Apr-25 13:00N 51°59' E 004°05'4 7.8
2017-Apr-25 12:30N 52°00' E 003°59'1 2.6
2017-Apr-25 12:00N 52°01' E 003°57'2 3.4
2017-Apr-25 11:30N 52°00' E 003°55'510.0
2017-Apr-25 11:00N 51°60' E 003°47'5 9.4
2017-Apr-25 10:30N 51°58' E 003°39'611.3
2017-Apr-25 10:00N 51°56' E 003°31'4210.5
2017-Apr-25 06:03N 51°41' E 002°28'210.4
2017-Apr-25 05:49N 51°39' E 002°26'310.7
2017-Apr-25 05:30N 51°36' E 002°22'611.0
2017-Apr-25 05:00N 51°32' E 002°16'611.2
2017-Apr-25 04:30N 51°28' E 002°11'611.5
2017-Apr-25 04:00N 51°22' E 002°11'611.3
2017-Apr-25 03:30N 51°20' E 002°20'612.0
2017-Apr-25 03:00N 51°23' E 002°29'611.6
2017-Apr-25 02:30N 51°22' E 002°38'4 8.4
2017-Apr-25 02:00N 51°22' E 002°45'5 9.6
2017-Apr-25 01:30N 51°23' E 002°53'611.1
2017-Apr-25 01:00N 51°24' E 003°01'510.8
2017-Apr-25 00:30N 51°24' E 003°10'510.8
2017-Apr-25 00:00N 51°25' E 003°18'510.3
2017-Apr-24 23:30N 51°25' E 003°27'5 9.5
2017-Apr-24 23:00N 51°26' E 003°34'4 7.6
2017-Apr-24 22:30N 51°26' E 003°40'5 9.2
2017-Apr-24 22:00N 51°22' E 003°44'5 9.7
2017-Apr-24 21:30N 51°21' E 003°51'5 9.6
2017-Apr-24 21:00N 51°24' E 003°57'3 6.3
2017-Apr-24 20:30N 51°25' E 004°02'4 8.5
2017-Apr-24 20:00N 51°22' E 004°07'4 8.2
2017-Apr-24 19:30N 51°22' E 004°13'3 6.0
2017-Apr-24 19:00N 51°21' E 004°17'0 0.0
2017-Apr-24 18:30N 51°21' E 004°17'0 0.5
2017-Apr-24 18:00N 51°21' E 004°18'3 5.9
2017-Apr-24 17:30N 51°18' E 004°20'3 6.0
2017-Apr-24 17:00N 51°15' E 004°22'0 0.4
2017-Apr-24 16:14N 51°15' E 004°21'0 0.0
2017-Apr-24 15:50N 51°15' E 004°21'0 0.0
2017-Apr-24 15:26N 51°15' E 004°21'0 0.0
2017-Apr-24 14:59N 51°15' E 004°21'0 0.0
2017-Apr-24 14:26N 51°15' E 004°21'0 0.0
2017-Apr-24 13:29N 51°15' E 004°21'0 0.0
2017-Apr-24 12:59N 51°15' E 004°21'0 0.0
2017-Apr-24 12:26N 51°15' E 004°21'0 0.0
2017-Apr-24 11:59N 51°15' E 004°21'0 0.0
2017-Apr-24 11:29N 51°15' E 004°21'0 0.0
2017-Apr-24 10:53N 51°15' E 004°21'0 0.0
2017-Apr-24 10:26N 51°15' E 004°21'0 0.0
2017-Apr-24 09:59N 51°15' E 004°21'0 0.0
2017-Apr-24 09:29N 51°15' E 004°21'0 0.0
2017-Apr-24 08:38N 51°15' E 004°21'0 0.0
2017-Apr-24 08:26N 51°15' E 004°21'0 0.0
2017-Apr-24 07:59N 51°15' E 004°21'0 0.0
2017-Apr-24 07:29N 51°15' E 004°21'0 0.0
2017-Apr-24 06:56N 51°15' E 004°21'0 0.0
2017-Apr-24 06:29N 51°15' E 004°21'0 0.0
2017-Apr-24 05:59N 51°15' E 004°21'0 0.0
2017-Apr-24 05:26N 51°15' E 004°21'0 0.0
2017-Apr-24 04:59N 51°15' E 004°21'0 0.0
2017-Apr-24 04:29N 51°15' E 004°21'0 0.0
2017-Apr-24 03:59N 51°15' E 004°21'0 0.0
2017-Apr-24 03:30N 51°15' E 004°21'1 1.3
2017-Apr-24 03:00N 51°15' E 004°22'0 0.0
2017-Apr-24 02:29N 51°15' E 004°22'0 0.0
2017-Apr-24 01:56N 51°15' E 004°22'0 0.0
2017-Apr-24 01:29N 51°15' E 004°22'0 0.0
2017-Apr-24 00:59N 51°15' E 004°22'0 0.0
2017-Apr-24 00:29N 51°15' E 004°22'0 0.0
2017-Apr-23 23:59N 51°15' E 004°22'0 0.0
2017-Apr-23 23:29N 51°15' E 004°22'0 0.0
2017-Apr-23 22:59N 51°15' E 004°22'0 0.0
2017-Apr-23 22:29N 51°15' E 004°22'0 0.0
2017-Apr-23 21:59N 51°15' E 004°22'0 0.0
2017-Apr-23 21:29N 51°15' E 004°22'0 0.0
2017-Apr-23 20:59N 51°15' E 004°22'0 0.0
2017-Apr-23 20:29N 51°15' E 004°22'0 0.0
2017-Apr-23 19:59N 51°15' E 004°22'0 0.0
2017-Apr-23 19:29N 51°15' E 004°22'0 0.0
2017-Apr-23 18:59N 51°15' E 004°22'0 0.0
2017-Apr-23 18:29N 51°15' E 004°22'0 0.0
2017-Apr-23 17:59N 51°15' E 004°22'0 0.0
2017-Apr-23 17:29N 51°15' E 004°22'0 0.0
2017-Apr-23 16:59N 51°15' E 004°22'0 0.0
2017-Apr-23 16:29N 51°15' E 004°22'0 0.0
2017-Apr-23 15:59N 51°15' E 004°22'0 0.0
2017-Apr-23 15:29N 51°15' E 004°22'0 0.0
2017-Apr-23 14:59N 51°15' E 004°22'0 0.0
2017-Apr-23 13:59N 51°15' E 004°22'0 0.0
2017-Apr-23 13:29N 51°15' E 004°22'0 0.0
2017-Apr-23 12:59N 51°15' E 004°22'0 0.0
2017-Apr-23 12:29N 51°15' E 004°22'0 0.0
2017-Apr-23 11:53N 51°15' E 004°22'0 0.0
2017-Apr-23 11:29N 51°15' E 004°22'0 0.0
2017-Apr-23 10:59N 51°15' E 004°22'0 0.0
2017-Apr-23 10:29N 51°15' E 004°22'0 0.0
2017-Apr-23 09:59N 51°15' E 004°22'0 0.0
2017-Apr-23 09:29N 51°15' E 004°22'0 0.0
2017-Apr-23 08:59N 51°15' E 004°22'0 0.0
2017-Apr-23 08:29N 51°15' E 004°22'0 0.0
2017-Apr-23 07:59N 51°15' E 004°22'0 0.0
2017-Apr-23 07:29N 51°15' E 004°22'0 0.0
2017-Apr-23 06:59N 51°15' E 004°22'0 0.0
2017-Apr-23 06:26N 51°15' E 004°22'0 0.0
2017-Apr-23 05:59N 51°15' E 004°22'0 0.0
2017-Apr-23 05:29N 51°15' E 004°22'0 0.0
2017-Apr-23 04:59N 51°15' E 004°22'0 0.0
2017-Apr-23 04:29N 51°15' E 004°22'0 0.0
2017-Apr-23 03:59N 51°15' E 004°22'0 0.0
2017-Apr-23 03:29N 51°15' E 004°22'0 0.0
2017-Apr-23 02:59N 51°15' E 004°22'0 0.0
2017-Apr-23 02:29N 51°15' E 004°22'0 0.0
2017-Apr-23 01:56N 51°15' E 004°22'0 0.0
2017-Apr-23 01:29N 51°15' E 004°22'0 0.0
2017-Apr-23 00:59N 51°15' E 004°22'0 0.0
2017-Apr-23 00:29N 51°15' E 004°22'0 0.0
2017-Apr-22 23:59N 51°15' E 004°22'0 0.0
2017-Apr-22 23:29N 51°15' E 004°22'0 0.0
2017-Apr-22 22:59N 51°15' E 004°22'0 0.0
2017-Apr-22 22:29N 51°15' E 004°22'0 0.0
2017-Apr-22 21:59N 51°15' E 004°22'0 0.0
2017-Apr-22 21:29N 51°15' E 004°22'0 0.0
2017-Apr-22 20:59N 51°15' E 004°22'0 0.0
2017-Apr-22 20:29N 51°15' E 004°22'0 0.0
2017-Apr-22 19:59N 51°15' E 004°22'0 0.0
2017-Apr-22 19:29N 51°15' E 004°22'0 0.0
2017-Apr-22 18:53N 51°15' E 004°22'0 0.0
2017-Apr-22 18:23N 51°15' E 004°22'0 0.0
2017-Apr-22 17:59N 51°15' E 004°22'0 0.0
2017-Apr-22 17:29N 51°15' E 004°22'0 0.0
2017-Apr-22 16:59N 51°15' E 004°22'0 0.0
2017-Apr-22 16:29N 51°15' E 004°22'0 0.0
2017-Apr-22 15:59N 51°15' E 004°22'0 0.0
2017-Apr-22 15:29N 51°15' E 004°22'0 0.0
2017-Apr-22 15:00N 51°15' E 004°22'0 0.1
2017-Apr-22 14:30N 51°15' E 004°22'5 5.4
2017-Apr-22 13:30N 51°20' E 004°18'1 1.5
2017-Apr-22 13:00N 51°21' E 004°17'0 0.0
2017-Apr-22 12:31N 51°21' E 004°17'1 1.2
2017-Apr-22 12:00N 51°21' E 004°16'2 4.3
2017-Apr-22 11:30N 51°19' E 004°16'2 4.2
2017-Apr-22 11:00N 51°17' E 004°15'0 0.0
2017-Apr-22 10:30N 51°17' E 004°15'1 1.8
2017-Apr-22 10:01N 51°17' E 004°13'1 0.3
2017-Apr-22 07:47N 51°16' E 004°13'0 0.0
2017-Apr-21 05:41N 51°16' E 004°13'0 0.0
2017-Apr-21 05:30N 51°16' E 004°13'1 1.8
2017-Apr-21 05:00N 51°16' E 004°14'1 1.0
2017-Apr-21 04:30N 51°17' E 004°15'0 0.0
2017-Apr-21 04:00N 51°17' E 004°15'1 2.8
2017-Apr-21 03:30N 51°18' E 004°16'3 6.0
2017-Apr-21 03:00N 51°21' E 004°15'4 8.0
2017-Apr-21 02:30N 51°23' E 004°10'5 9.3
2017-Apr-21 02:00N 51°23' E 004°03'4 8.4
2017-Apr-21 01:30N 51°26' E 003°59'5 9.8
2017-Apr-21 01:00N 51°22' E 003°55'4 8.3
2017-Apr-21 00:30N 51°21' E 003°48'5 9.5
2017-Apr-21 00:00N 51°24' E 003°43'4 7.7
2017-Apr-20 23:30N 51°26' E 003°38'4 7.1
2017-Apr-20 23:01N 51°25' E 003°32'4 8.2
2017-Apr-20 22:30N 51°25' E 003°26'4 8.9
2017-Apr-20 22:01N 51°24' E 003°18'5 9.4
2017-Apr-20 21:31N 51°24' E 003°11'510.4
2017-Apr-20 21:00N 51°24' E 003°03'511.0
2017-Apr-20 20:30N 51°22' E 002°54'5 9.4
2017-Apr-20 20:01N 51°22' E 002°47'510.1
2017-Apr-20 19:30N 51°25' E 002°40'2 3.5
2017-Apr-20 19:00N 51°25' E 002°38'0 0.0
2017-Apr-20 18:29N 51°25' E 002°38'0 0.0
2017-Apr-20 17:59N 51°25' E 002°38'0 0.1
2017-Apr-20 17:29N 51°25' E 002°38'0 0.3
2017-Apr-20 17:00N 51°25' E 002°37'0 0.7
2017-Apr-20 16:31N 51°25' E 002°37'3 6.7
2017-Apr-20 16:01N 51°23' E 002°34'510.4
2017-Apr-20 15:30N 51°21' E 002°26'612.0
2017-Apr-20 15:01N 51°18' E 002°17'612.0
2017-Apr-20 14:30N 51°15' E 002°09'1211.8
2017-Apr-20 13:31N 51°09' E 001°53'611.4
2017-Apr-20 13:01N 51°06' E 001°45'611.3
2017-Apr-20 12:31N 51°02' E 001°39'611.7
2017-Apr-20 12:01N 50°57' E 001°34'611.8
2017-Apr-20 11:30N 50°52' E 001°29'712.3
2017-Apr-20 10:57N 50°46' E 001°24'4412.2
2017-Apr-20 07:22N 50°24' E 000°25'412.4
2017-Apr-20 07:00N 50°23' E 000°18'612.4
2017-Apr-20 06:31N 50°21' E 000°09'612.4
2017-Apr-20 06:00N 50°19' W 000°01'712.6
2017-Apr-20 05:28N 50°17' W 000°11'  
Track history (hours):
 
Tides and Currents Weather Stations Pressure Air Temp Water Temp Dewpoint Dewpoint Depression Visibility Wind Speed Wind Dir Waves Ship Positions

Chemroad Wing

Last reported at 2017-Apr-30 00:10 UTC. Time now 2017-Apr-30 05:25 UTC.
Position N 49°38' W 003°56'.

Length 170 m; draft 6.6 m.

Type: Ship. MMSI: 357740000.

Date/timePositionNaut miles runAvg speedWind from/ knotsBaromVisibWave heightAir tempDewpointWater temp
2017-Apr-30 00:10N 49°38' W 003°56'315.0
2017-Apr-29 23:59N 49°39' W 003°52'814.7
2017-Apr-29 23:27N 49°43' W 003°42'614.2
2017-Apr-29 23:00N 49°46' W 003°33'713.6
2017-Apr-29 22:30N 49°50' W 003°24'612.6
2017-Apr-29 22:00N 49°53' W 003°16'612.4
2017-Apr-29 21:30N 49°56' W 003°07'612.3
2017-Apr-29 21:00N 49°59' W 002°59'612.2
2017-Apr-29 20:30N 50°01' W 002°50'612.5
2017-Apr-29 20:00N 50°03' W 002°41'713.1
2017-Apr-29 19:30N 50°05' W 002°31'713.7
2017-Apr-29 19:00N 50°06' W 002°21'714.6
2017-Apr-29 18:30N 50°08' W 002°10'915.8
2017-Apr-29 17:57N 50°10' W 001°57'916.9
2017-Apr-29 17:24N 50°13' W 001°43'917.6
2017-Apr-29 16:54N 50°15' W 001°29'918.0
2017-Apr-29 16:25N 50°17' W 001°16'818.2
2017-Apr-29 15:59N 50°19' W 001°04'918.1
2017-Apr-29 15:30N 50°21' W 000°51'816.2
2017-Apr-29 15:00N 50°22' W 000°38'1615.9
2017-Apr-29 14:00N 50°27' W 000°14'714.7
2017-Apr-29 13:30N 50°29' W 000°03'714.1
2017-Apr-29 13:00N 50°31' E 000°08'713.3
2017-Apr-29 12:30N 50°33' E 000°17'912.6
2017-Apr-29 11:49N 50°35' E 000°30'412.1
2017-Apr-29 11:30N 50°37' E 000°36'612.0
2017-Apr-29 11:00N 50°40' E 000°44'612.5
2017-Apr-29 10:30N 50°43' E 000°52'713.4
2017-Apr-29 10:00N 50°47' E 001°01'1014.6
2017-Apr-29 09:18N 50°54' E 001°13'516.1
2017-Apr-29 09:01N 50°58' E 001°17'816.6
2017-Apr-29 08:31N 51°04' E 001°27'816.5
2017-Apr-29 08:01N 51°09' E 001°37'815.5
2017-Apr-29 07:31N 51°14' E 001°46'714.4
2017-Apr-29 07:00N 51°20' E 001°52'713.3
2017-Apr-29 06:30N 51°26' E 001°57'612.9
2017-Apr-29 06:00N 51°31' E 002°03'612.4
2017-Apr-29 05:30N 51°36' E 002°10'812.4
2017-Apr-29 04:54N 51°42' E 002°18'2511.8
2017-Apr-29 02:47N 52°00' E 002°45'712.4
2017-Apr-29 02:13N 52°01' E 002°56'312.9
2017-Apr-29 02:00N 52°02' E 003°01'713.2
2017-Apr-29 01:29N 52°02' E 003°12'713.8
2017-Apr-29 01:00N 52°02' E 003°22'714.3
2017-Apr-29 00:30N 52°03' E 003°34'714.7
2017-Apr-29 00:00N 52°03' E 003°46'3 6.9
2017-Apr-28 23:30N 52°02' E 003°51'2 4.1
2017-Apr-28 23:00N 52°02' E 003°55'2 4.5
2017-Apr-28 22:30N 52°03' E 003°58'3 6.2
2017-Apr-28 22:00N 52°00' E 004°00'511.0
2017-Apr-28 21:30N 51°58' E 004°08'612.3
2017-Apr-28 21:00N 51°54' E 004°16'3 5.5
2017-Apr-28 20:31N 51°53' E 004°21'0 0.0
2017-Apr-28 19:51N 51°53' E 004°21'0 0.0
2017-Apr-28 19:30N 51°53' E 004°21'0 0.0
2017-Apr-28 18:59N 51°53' E 004°21'0 0.0
2017-Apr-28 18:29N 51°53' E 004°21'0 0.0
2017-Apr-28 17:59N 51°53' E 004°21'0 0.0
2017-Apr-28 17:29N 51°53' E 004°21'0 0.0
2017-Apr-28 16:59N 51°53' E 004°21'0 0.0
2017-Apr-28 16:26N 51°53' E 004°21'0 0.0
2017-Apr-28 15:53N 51°53' E 004°21'0 0.0
2017-Apr-28 15:14N 51°53' E 004°21'0 0.0
2017-Apr-28 14:59N 51°53' E 004°21'0 0.0
2017-Apr-28 13:59N 51°53' E 004°21'0 0.0
2017-Apr-28 13:29N 51°53' E 004°21'0 0.0
2017-Apr-28 12:59N 51°53' E 004°21'0 0.0
2017-Apr-28 12:29N 51°53' E 004°21'0 0.0
2017-Apr-28 11:17N 51°53' E 004°21'0 0.0
2017-Apr-28 10:59N 51°53' E 004°21'0 0.0
2017-Apr-28 10:23N 51°53' E 004°21'0 0.0
2017-Apr-28 09:50N 51°53' E 004°21'0 0.0
2017-Apr-28 09:26N 51°53' E 004°21'0 0.0
2017-Apr-28 08:56N 51°53' E 004°21'0 0.0
2017-Apr-28 08:29N 51°53' E 004°21'0 0.0
2017-Apr-28 07:59N 51°53' E 004°21'0 0.0
2017-Apr-28 07:26N 51°53' E 004°21'0 0.0
2017-Apr-28 06:54N 51°53' E 004°21'0 0.0
2017-Apr-28 06:26N 51°53' E 004°21'0 0.0
2017-Apr-28 05:56N 51°53' E 004°21'0 0.0
2017-Apr-28 05:29N 51°53' E 004°21'0 0.0
2017-Apr-28 04:56N 51°53' E 004°21'0 0.0
2017-Apr-28 04:29N 51°53' E 004°21'0 0.0
2017-Apr-28 03:59N 51°53' E 004°21'0 0.0
2017-Apr-28 03:23N 51°53' E 004°21'0 0.0
2017-Apr-28 02:59N 51°53' E 004°21'0 0.0
2017-Apr-28 02:29N 51°53' E 004°21'0 0.0
2017-Apr-28 01:59N 51°53' E 004°21'0 0.0
2017-Apr-28 01:30N 51°53' E 004°21'0 0.0
2017-Apr-28 00:59N 51°53' E 004°21'0 0.0
2017-Apr-28 00:30N 51°53' E 004°21'0 0.0
2017-Apr-27 23:59N 51°53' E 004°21'0 0.0
2017-Apr-27 23:26N 51°53' E 004°21'0 0.0
2017-Apr-27 22:56N 51°53' E 004°21'0 0.0
2017-Apr-27 22:29N 51°53' E 004°21'0 0.0
2017-Apr-27 22:00N 51°53' E 004°21'0 0.0
2017-Apr-27 21:26N 51°53' E 004°21'0 0.0
2017-Apr-27 21:00N 51°53' E 004°21'0 0.0
2017-Apr-27 19:30N 51°53' E 004°21'0 0.0
2017-Apr-27 19:00N 51°53' E 004°21'0 0.0
2017-Apr-27 18:23N 51°53' E 004°21'0 0.0
2017-Apr-27 17:54N 51°53' E 004°21'0 0.0
2017-Apr-27 17:29N 51°53' E 004°21'0 0.0
2017-Apr-27 16:54N 51°53' E 004°21'0 0.0
2017-Apr-27 16:30N 51°53' E 004°21'0 0.0
2017-Apr-27 15:59N 51°53' E 004°21'0 0.0
2017-Apr-27 15:30N 51°53' E 004°21'0 0.0
2017-Apr-27 13:59N 51°53' E 004°21'0 0.0
2017-Apr-27 12:59N 51°53' E 004°21'0 0.0
2017-Apr-27 12:30N 51°53' E 004°21'0 0.0
2017-Apr-27 11:30N 51°53' E 004°21'0 0.0
2017-Apr-27 10:59N 51°53' E 004°21'0 0.0
2017-Apr-27 10:20N 51°53' E 004°21'0 0.0
2017-Apr-27 09:56N 51°53' E 004°21'0 0.0
2017-Apr-27 09:17N 51°53' E 004°21'0 0.0
2017-Apr-27 08:53N 51°53' E 004°21'0 0.0
2017-Apr-27 08:29N 51°53' E 004°21'0 0.0
2017-Apr-27 07:59N 51°53' E 004°21'0 0.0
2017-Apr-27 06:59N 51°53' E 004°21'0 0.0
2017-Apr-27 06:30N 51°53' E 004°21'0 0.0
2017-Apr-27 05:59N 51°53' E 004°21'0 0.0
2017-Apr-27 05:29N 51°53' E 004°21'0 0.0
2017-Apr-27 04:59N 51°53' E 004°21'0 0.0
2017-Apr-27 04:20N 51°53' E 004°21'0 0.0
2017-Apr-27 03:59N 51°53' E 004°21'0 0.0
2017-Apr-27 03:17N 51°53' E 004°21'0 0.0
2017-Apr-27 02:59N 51°53' E 004°21'0 0.0
2017-Apr-27 02:29N 51°53' E 004°21'0 0.0
2017-Apr-27 01:59N 51°53' E 004°21'0 0.0
2017-Apr-27 01:29N 51°53' E 004°21'0 0.0
2017-Apr-27 00:50N 51°53' E 004°21'0 0.0
2017-Apr-27 00:29N 51°53' E 004°21'0 0.0
2017-Apr-27 00:01N 51°53' E 004°21'0 0.5
2017-Apr-26 23:30N 51°54' E 004°20'3 5.9
2017-Apr-26 23:01N 51°54' E 004°16'5 9.1
2017-Apr-26 22:31N 51°57' E 004°10'5 9.8
2017-Apr-26 22:01N 51°59' E 004°03'1 2.1
2017-Apr-26 21:30N 51°59' E 004°04'2 3.5
2017-Apr-26 21:00N 51°58' E 004°02'0 0.6
2017-Apr-26 20:31N 51°58' E 004°02'0 0.0
2017-Apr-26 19:59N 51°58' E 004°02'0 0.0
2017-Apr-26 19:29N 51°58' E 004°02'0 0.0
2017-Apr-26 18:59N 51°58' E 004°02'0 0.0
2017-Apr-26 18:29N 51°58' E 004°02'0 0.0
2017-Apr-26 17:59N 51°58' E 004°02'0 0.0
2017-Apr-26 17:29N 51°58' E 004°02'0 0.0
2017-Apr-26 16:56N 51°58' E 004°02'0 0.0
2017-Apr-26 16:29N 51°58' E 004°02'0 0.0
2017-Apr-26 15:53N 51°58' E 004°02'0 0.0
2017-Apr-26 15:29N 51°58' E 004°02'0 0.0
2017-Apr-26 14:56N 51°58' E 004°02'0 0.0
2017-Apr-26 13:59N 51°58' E 004°02'0 0.0
2017-Apr-26 13:29N 51°58' E 004°02'0 0.0
2017-Apr-26 12:59N 51°58' E 004°02'0 0.0
2017-Apr-26 12:26N 51°58' E 004°02'0 0.0
2017-Apr-26 11:53N 51°58' E 004°02'0 0.0
2017-Apr-26 11:29N 51°58' E 004°02'0 0.0
2017-Apr-26 10:59N 51°58' E 004°02'0 0.0
2017-Apr-26 10:26N 51°58' E 004°02'0 0.0
2017-Apr-26 09:59N 51°58' E 004°02'0 0.0
2017-Apr-26 09:26N 51°58' E 004°02'0 0.0
2017-Apr-26 08:56N 51°58' E 004°02'0 0.0
2017-Apr-26 08:26N 51°58' E 004°02'0 0.0
2017-Apr-26 07:59N 51°58' E 004°02'0 0.0
2017-Apr-26 07:26N 51°58' E 004°02'0 0.0
2017-Apr-26 06:59N 51°58' E 004°02'0 0.0
2017-Apr-26 06:29N 51°58' E 004°02'0 0.0
2017-Apr-26 05:59N 51°58' E 004°02'0 0.0
2017-Apr-26 05:29N 51°58' E 004°02'0 0.0
2017-Apr-26 04:59N 51°58' E 004°02'0 0.0
2017-Apr-26 04:29N 51°58' E 004°02'0 0.0
2017-Apr-26 03:59N 51°58' E 004°02'0 0.0
2017-Apr-26 03:29N 51°58' E 004°02'0 0.0
2017-Apr-26 02:59N 51°58' E 004°02'0 0.0
2017-Apr-26 02:29N 51°58' E 004°02'0 0.0
2017-Apr-26 01:59N 51°58' E 004°02'0 0.0
2017-Apr-26 01:29N 51°58' E 004°02'0 0.0
2017-Apr-26 00:59N 51°58' E 004°02'0 0.0
2017-Apr-26 00:29N 51°58' E 004°02'0 0.0
2017-Apr-25 23:59N 51°58' E 004°02'0 0.0
2017-Apr-25 23:29N 51°58' E 004°02'0 0.0
2017-Apr-25 22:59N 51°58' E 004°02'0 0.0
2017-Apr-25 22:29N 51°58' E 004°02'0 0.0
2017-Apr-25 21:59N 51°58' E 004°02'0 0.0
2017-Apr-25 21:29N 51°58' E 004°02'0 0.0
2017-Apr-25 20:59N 51°58' E 004°02'0 0.0
2017-Apr-25 20:29N 51°58' E 004°02'0 0.0
2017-Apr-25 19:59N 51°58' E 004°02'0 0.0
2017-Apr-25 19:29N 51°58' E 004°02'0 0.0
2017-Apr-25 18:59N 51°58' E 004°02'0 0.0
2017-Apr-25 18:29N 51°58' E 004°02'0 0.0
2017-Apr-25 17:59N 51°58' E 004°02'0 0.0
2017-Apr-25 17:29N 51°58' E 004°02'0 0.0
2017-Apr-25 16:59N 51°58' E 004°02'0 0.0
2017-Apr-25 16:29N 51°58' E 004°02'0 0.0
2017-Apr-25 15:59N 51°58' E 004°02'0 0.0
2017-Apr-25 15:29N 51°58' E 004°02'0 0.0
2017-Apr-25 14:56N 51°58' E 004°02'0 0.0
2017-Apr-25 13:57N 51°58' E 004°02'0 0.5
2017-Apr-25 13:31N 51°58' E 004°02'2 3.8
2017-Apr-25 13:00N 51°59' E 004°05'4 7.8
2017-Apr-25 12:30N 52°00' E 003°59'1 2.6
2017-Apr-25 12:00N 52°01' E 003°57'2 3.4
2017-Apr-25 11:30N 52°00' E 003°55'510.0
2017-Apr-25 11:00N 51°60' E 003°47'5 9.4
2017-Apr-25 10:30N 51°58' E 003°39'611.3
2017-Apr-25 10:00N 51°56' E 003°31'4210.5
2017-Apr-25 06:03N 51°41' E 002°28'210.4
2017-Apr-25 05:49N 51°39' E 002°26'310.7
2017-Apr-25 05:30N 51°36' E 002°22'611.0
2017-Apr-25 05:00N 51°32' E 002°16'611.2
2017-Apr-25 04:30N 51°28' E 002°11'611.5
2017-Apr-25 04:00N 51°22' E 002°11'611.3
2017-Apr-25 03:30N 51°20' E 002°20'612.0
2017-Apr-25 03:00N 51°23' E 002°29'611.6
2017-Apr-25 02:30N 51°22' E 002°38'4 8.4
2017-Apr-25 02:00N 51°22' E 002°45'5 9.6
2017-Apr-25 01:30N 51°23' E 002°53'611.1
2017-Apr-25 01:00N 51°24' E 003°01'510.8
2017-Apr-25 00:30N 51°24' E 003°10'510.8
2017-Apr-25 00:00N 51°25' E 003°18'510.3
2017-Apr-24 23:30N 51°25' E 003°27'5 9.5
2017-Apr-24 23:00N 51°26' E 003°34'4 7.6
2017-Apr-24 22:30N 51°26' E 003°40'5 9.2
2017-Apr-24 22:00N 51°22' E 003°44'5 9.7
2017-Apr-24 21:30N 51°21' E 003°51'5 9.6
2017-Apr-24 21:00N 51°24' E 003°57'3 6.3
2017-Apr-24 20:30N 51°25' E 004°02'4 8.5
2017-Apr-24 20:00N 51°22' E 004°07'4 8.2
2017-Apr-24 19:30N 51°22' E 004°13'3 6.0
2017-Apr-24 19:00N 51°21' E 004°17'0 0.0
2017-Apr-24 18:30N 51°21' E 004°17'0 0.5
2017-Apr-24 18:00N 51°21' E 004°18'3 5.9
2017-Apr-24 17:30N 51°18' E 004°20'3 6.0
2017-Apr-24 17:00N 51°15' E 004°22'0 0.4
2017-Apr-24 16:14N 51°15' E 004°21'0 0.0
2017-Apr-24 15:50N 51°15' E 004°21'0 0.0
2017-Apr-24 15:26N 51°15' E 004°21'0 0.0
2017-Apr-24 14:59N 51°15' E 004°21'0 0.0
2017-Apr-24 14:26N 51°15' E 004°21'0 0.0
2017-Apr-24 13:29N 51°15' E 004°21'0 0.0
2017-Apr-24 12:59N 51°15' E 004°21'0 0.0
2017-Apr-24 12:26N 51°15' E 004°21'0 0.0
2017-Apr-24 11:59N 51°15' E 004°21'0 0.0
2017-Apr-24 11:29N 51°15' E 004°21'0 0.0
2017-Apr-24 10:53N 51°15' E 004°21'0 0.0
2017-Apr-24 10:26N 51°15' E 004°21'0 0.0
2017-Apr-24 09:59N 51°15' E 004°21'0 0.0
2017-Apr-24 09:29N 51°15' E 004°21'0 0.0
2017-Apr-24 08:38N 51°15' E 004°21'0 0.0
2017-Apr-24 08:26N 51°15' E 004°21'0 0.0
2017-Apr-24 07:59N 51°15' E 004°21'0 0.0
2017-Apr-24 07:29N 51°15' E 004°21'0 0.0
2017-Apr-24 06:56N 51°15' E 004°21'0 0.0
2017-Apr-24 06:29N 51°15' E 004°21'0 0.0
2017-Apr-24 05:59N 51°15' E 004°21'0 0.0
2017-Apr-24 05:26N 51°15' E 004°21'0 0.0
2017-Apr-24 04:59N 51°15' E 004°21'0 0.0
2017-Apr-24 04:29N 51°15' E 004°21'0 0.0
2017-Apr-24 03:59N 51°15' E 004°21'0 0.0
2017-Apr-24 03:30N 51°15' E 004°21'1 1.3
2017-Apr-24 03:00N 51°15' E 004°22'0 0.0
2017-Apr-24 02:29N 51°15' E 004°22'0 0.0
2017-Apr-24 01:56N 51°15' E 004°22'0 0.0
2017-Apr-24 01:29N 51°15' E 004°22'0 0.0
2017-Apr-24 00:59N 51°15' E 004°22'0 0.0
2017-Apr-24 00:29N 51°15' E 004°22'0 0.0
2017-Apr-23 23:59N 51°15' E 004°22'0 0.0
2017-Apr-23 23:29N 51°15' E 004°22'0 0.0
2017-Apr-23 22:59N 51°15' E 004°22'0 0.0
2017-Apr-23 22:29N 51°15' E 004°22'0 0.0
2017-Apr-23 21:59N 51°15' E 004°22'0 0.0
2017-Apr-23 21:29N 51°15' E 004°22'0 0.0
2017-Apr-23 20:59N 51°15' E 004°22'0 0.0
2017-Apr-23 20:29N 51°15' E 004°22'0 0.0
2017-Apr-23 19:59N 51°15' E 004°22'0 0.0
2017-Apr-23 19:29N 51°15' E 004°22'0 0.0
2017-Apr-23 18:59N 51°15' E 004°22'0 0.0
2017-Apr-23 18:29N 51°15' E 004°22'0 0.0
2017-Apr-23 17:59N 51°15' E 004°22'0 0.0
2017-Apr-23 17:29N 51°15' E 004°22'0 0.0
2017-Apr-23 16:59N 51°15' E 004°22'0 0.0
2017-Apr-23 16:29N 51°15' E 004°22'0 0.0
2017-Apr-23 15:59N 51°15' E 004°22'0 0.0
2017-Apr-23 15:29N 51°15' E 004°22'0 0.0
2017-Apr-23 14:59N 51°15' E 004°22'0 0.0
2017-Apr-23 13:59N 51°15' E 004°22'0 0.0
2017-Apr-23 13:29N 51°15' E 004°22'0 0.0
2017-Apr-23 12:59N 51°15' E 004°22'0 0.0
2017-Apr-23 12:29N 51°15' E 004°22'0 0.0
2017-Apr-23 11:53N 51°15' E 004°22'0 0.0
2017-Apr-23 11:29N 51°15' E 004°22'0 0.0
2017-Apr-23 10:59N 51°15' E 004°22'0 0.0
2017-Apr-23 10:29N 51°15' E 004°22'0 0.0
2017-Apr-23 09:59N 51°15' E 004°22'0 0.0
2017-Apr-23 09:29N 51°15' E 004°22'0 0.0
2017-Apr-23 08:59N 51°15' E 004°22'0 0.0
2017-Apr-23 08:29N 51°15' E 004°22'0 0.0
2017-Apr-23 07:59N 51°15' E 004°22'0 0.0
2017-Apr-23 07:29N 51°15' E 004°22'0 0.0
2017-Apr-23 06:59N 51°15' E 004°22'0 0.0
2017-Apr-23 06:26N 51°15' E 004°22'0 0.0
2017-Apr-23 05:59N 51°15' E 004°22'0 0.0
2017-Apr-23 05:29N 51°15' E 004°22'0 0.0
2017-Apr-23 04:59N 51°15' E 004°22'0 0.0
2017-Apr-23 04:29N 51°15' E 004°22'0 0.0
2017-Apr-23 03:59N 51°15' E 004°22'0 0.0
2017-Apr-23 03:29N 51°15' E 004°22'0 0.0
2017-Apr-23 02:59N 51°15' E 004°22'0 0.0
2017-Apr-23 02:29N 51°15' E 004°22'0 0.0
2017-Apr-23 01:56N 51°15' E 004°22'0 0.0
2017-Apr-23 01:29N 51°15' E 004°22'0 0.0
2017-Apr-23 00:59N 51°15' E 004°22'0 0.0
2017-Apr-23 00:29N 51°15' E 004°22'0 0.0
2017-Apr-22 23:59N 51°15' E 004°22'0 0.0
2017-Apr-22 23:29N 51°15' E 004°22'0 0.0
2017-Apr-22 22:59N 51°15' E 004°22'0 0.0
2017-Apr-22 22:29N 51°15' E 004°22'0 0.0
2017-Apr-22 21:59N 51°15' E 004°22'0 0.0
2017-Apr-22 21:29N 51°15' E 004°22'0 0.0
2017-Apr-22 20:59N 51°15' E 004°22'0 0.0
2017-Apr-22 20:29N 51°15' E 004°22'0 0.0
2017-Apr-22 19:59N 51°15' E 004°22'0 0.0
2017-Apr-22 19:29N 51°15' E 004°22'0 0.0
2017-Apr-22 18:53N 51°15' E 004°22'0 0.0
2017-Apr-22 18:23N 51°15' E 004°22'0 0.0
2017-Apr-22 17:59N 51°15' E 004°22'0 0.0
2017-Apr-22 17:29N 51°15' E 004°22'0 0.0
2017-Apr-22 16:59N 51°15' E 004°22'0 0.0
2017-Apr-22 16:29N 51°15' E 004°22'0 0.0
2017-Apr-22 15:59N 51°15' E 004°22'0 0.0
2017-Apr-22 15:29N 51°15' E 004°22'0 0.0
2017-Apr-22 15:00N 51°15' E 004°22'0 0.1
2017-Apr-22 14:30N 51°15' E 004°22'5 5.4
2017-Apr-22 13:30N 51°20' E 004°18'1 1.5
2017-Apr-22 13:00N 51°21' E 004°17'0 0.0
2017-Apr-22 12:31N 51°21' E 004°17'1 1.2
2017-Apr-22 12:00N 51°21' E 004°16'2 4.3
2017-Apr-22 11:30N 51°19' E 004°16'2 4.2
2017-Apr-22 11:00N 51°17' E 004°15'0 0.0
2017-Apr-22 10:30N 51°17' E 004°15'1 1.8
2017-Apr-22 10:01N 51°17' E 004°13'1 0.3
2017-Apr-22 07:47N 51°16' E 004°13'0 0.0
2017-Apr-21 05:41N 51°16' E 004°13'0 0.0
2017-Apr-21 05:30N 51°16' E 004°13'1 1.8
2017-Apr-21 05:00N 51°16' E 004°14'1 1.0
2017-Apr-21 04:30N 51°17' E 004°15'0 0.0
2017-Apr-21 04:00N 51°17' E 004°15'1 2.8
2017-Apr-21 03:30N 51°18' E 004°16'3 6.0
2017-Apr-21 03:00N 51°21' E 004°15'4 8.0
2017-Apr-21 02:30N 51°23' E 004°10'5 9.3
2017-Apr-21 02:00N 51°23' E 004°03'4 8.4
2017-Apr-21 01:30N 51°26' E 003°59'5 9.8
2017-Apr-21 01:00N 51°22' E 003°55'4 8.3
2017-Apr-21 00:30N 51°21' E 003°48'5 9.5
2017-Apr-21 00:00N 51°24' E 003°43'4 7.7
2017-Apr-20 23:30N 51°26' E 003°38'4 7.1
2017-Apr-20 23:01N 51°25' E 003°32'4 8.2
2017-Apr-20 22:30N 51°25' E 003°26'4 8.9
2017-Apr-20 22:01N 51°24' E 003°18'5 9.4
2017-Apr-20 21:31N 51°24' E 003°11'510.4
2017-Apr-20 21:00N 51°24' E 003°03'511.0
2017-Apr-20 20:30N 51°22' E 002°54'5 9.4
2017-Apr-20 20:01N 51°22' E 002°47'510.1
2017-Apr-20 19:30N 51°25' E 002°40'2 3.5
2017-Apr-20 19:00N 51°25' E 002°38'0 0.0
2017-Apr-20 18:29N 51°25' E 002°38'0 0.0
2017-Apr-20 17:59N 51°25' E 002°38'0 0.1
2017-Apr-20 17:29N 51°25' E 002°38'0 0.3
2017-Apr-20 17:00N 51°25' E 002°37'0 0.7
2017-Apr-20 16:31N 51°25' E 002°37'3 6.7
2017-Apr-20 16:01N 51°23' E 002°34'510.4
2017-Apr-20 15:30N 51°21' E 002°26'612.0
2017-Apr-20 15:01N 51°18' E 002°17'612.0
2017-Apr-20 14:30N 51°15' E 002°09'1211.8
2017-Apr-20 13:31N 51°09' E 001°53'611.4
2017-Apr-20 13:01N 51°06' E 001°45'611.3
2017-Apr-20 12:31N 51°02' E 001°39'611.7
2017-Apr-20 12:01N 50°57' E 001°34'611.8
2017-Apr-20 11:30N 50°52' E 001°29'712.3
2017-Apr-20 10:57N 50°46' E 001°24'4412.2
2017-Apr-20 07:22N 50°24' E 000°25'412.4
2017-Apr-20 07:00N 50°23' E 000°18'612.4
2017-Apr-20 06:31N 50°21' E 000°09'612.4
2017-Apr-20 06:00N 50°19' W 000°01'712.6
2017-Apr-20 05:28N 50°17' W 000°11'  

Dump ship's entire track history